Weather History for KCMY - December, 2014

Change the Weather History Date:

Sunday, December 21, 2014

  Actual Average Record
Temperature  
Mean Temperature 34 °F -  
Max Temperature 37 °F 26 °F 55 °F (1967)
Min Temperature 30 °F 4 °F -25 °F (1983)
Degree Days  
Heating Degree Days 32    
Moisture  
Dew Point 32 °F    
Average Humidity 91    
Maximum Humidity 96    
Minimum Humidity 84    
Precipitation  
Precipitation 0.00 in - - ()
Sea Level Pressure  
Sea Level Pressure 29.98 in    
Wind  
Wind Speed 7 mph (SSE)    
Max Wind Speed 16 mph    
Max Gust Speed 24 mph    
Visibility 5 miles    
Events      
Averages and records for this station are not official NWS values.
T = Trace of Precipitation, MM = Missing Value Source: NWS Daily Summary

Daily Weather History Graph

Daily Weather History Graph

Search for Another Location

Airport or City:

Trip Planner

Search our weather history database for the weather conditions in past years. The results will help you decide how hot, cold, wet, or windy it might be!

Date:

Astronomy

Dec. 21, 2014 Rise Set
Actual Time 7:34 AM CST 4:27 PM CST
Civil Twilight 7:01 AM CST 5:01 PM CST
Nautical Twilight 6:24 AM CST 5:37 PM CST
Astronomical Twilight 5:49 AM CST 6:12 PM CST
Moon 6:48 AM CST (12/21) 4:37 PM CST (12/21)
Length of Visible Light 9h 59m
Length of Day
8h 53m
Waning Crescent, 0% of the Moon is Illuminated
Dec 21
Waning Crescent
Dec 21
New
Dec 28
First Quarter
Jan 4
Full
Jan 13
Last Quarter

Hourly Weather History & Observations

Time (CST) Temp. Windchill Dew Point Humidity Pressure Visibility Wind Dir Wind Speed Gust Speed Precip Events Conditions
12:15 AM 30.7 °F 26.0 °F 27.1 °F 86% 30.16 in 5.0 mi South 4.6 mph - N/A   Overcast
12:35 AM 30.7 °F 24.1 °F 27.3 °F 87% 30.15 in 5.0 mi South 6.9 mph - N/A   Overcast
12:55 AM 30.7 °F 24.9 °F 27.3 °F 87% 30.15 in 5.0 mi South 5.8 mph - N/A   Overcast
1:15 AM 30.7 °F 26.0 °F 27.3 °F 87% 30.15 in 4.0 mi SSE 4.6 mph - N/A   Overcast
1:35 AM 30.6 °F 25.8 °F 27.3 °F 88% 30.14 in 4.0 mi SSE 4.6 mph - N/A   Overcast
1:55 AM 30.7 °F 24.9 °F 27.5 °F 88% 30.14 in 4.0 mi SSE 5.8 mph - N/A   Overcast
2:15 AM 30.9 °F 26.2 °F 27.5 °F 87% 30.14 in 4.0 mi SE 4.6 mph - N/A   Overcast
2:35 AM 30.9 °F 27.5 °F 27.7 °F 88% 30.13 in 4.0 mi SE 3.5 mph - N/A   Overcast
2:55 AM 30.9 °F 25.2 °F 27.9 °F 88% 30.13 in 5.0 mi SE 5.8 mph - N/A   Overcast
3:15 AM 30.9 °F 26.2 °F 28.0 °F 89% 30.12 in 5.0 mi SE 4.6 mph - N/A   Overcast
3:35 AM 31.1 °F 24.5 °F 28.2 °F 89% 30.11 in 4.0 mi SE 6.9 mph - N/A   Overcast
3:55 AM 31.1 °F 24.5 °F 28.4 °F 90% 30.10 in 4.0 mi SE 6.9 mph - N/A   Overcast
4:15 AM 31.1 °F 26.4 °F 28.8 °F 91% 30.10 in 4.0 mi SE 4.6 mph - N/A   Overcast
4:35 AM 31.1 °F 24.5 °F 28.9 °F 92% 30.09 in 4.0 mi SE 6.9 mph - N/A   Overcast
4:55 AM 31.6 °F 27.0 °F 29.3 °F 91% 30.08 in 4.0 mi SE 4.6 mph - N/A   Overcast
5:15 AM 31.8 °F 26.2 °F 29.3 °F 90% 30.08 in 4.0 mi SSE 5.8 mph - N/A   Overcast
5:35 AM 31.8 °F 25.4 °F 29.8 °F 92% 30.07 in 4.0 mi SE 6.9 mph - N/A   Overcast
5:55 AM 31.8 °F 23.9 °F 30.0 °F 93% 30.06 in 4.0 mi SE 9.2 mph - N/A   Overcast
6:15 AM 32.0 °F 24.8 °F 30.7 °F 95% 30.05 in 4.0 mi SE 8.1 mph - N/A   Overcast
6:35 AM 32.0 °F 25.6 °F 30.7 °F 95% 30.05 in 4.0 mi SE 6.9 mph - N/A   Overcast
6:55 AM 32.0 °F 25.6 °F 30.7 °F 95% 30.05 in 5.0 mi SSE 6.9 mph - N/A   Overcast
7:15 AM 32.2 °F 25.8 °F 30.7 °F 94% 30.05 in 5.0 mi SE 6.9 mph - N/A   Overcast
7:35 AM 32.9 °F 23.2 °F 31.3 °F 94% 30.04 in 5.0 mi SSE 13.8 mph - N/A   Overcast
7:55 AM 32.9 °F 28.5 °F 31.8 °F 96% 30.05 in 5.0 mi SSE 4.6 mph - N/A   Overcast
8:15 AM 32.9 °F 27.5 °F 32.0 °F 96% 30.04 in 4.0 mi SSE 5.8 mph - N/A   Overcast
8:35 AM 32.9 °F 25.9 °F 32.0 °F 96% 30.03 in 3.0 mi SSE 8.1 mph - N/A   Overcast
8:55 AM 33.3 °F 25.1 °F 32.4 °F 96% 30.02 in 2.5 mi SE 10.4 mph - N/A   Overcast
9:15 AM 33.8 °F 25.8 °F 32.5 °F 95% 30.02 in 2.5 mi SE 10.4 mph - N/A   Overcast
9:35 AM 33.8 °F 25.8 °F 32.9 °F 96% 30.02 in 2.5 mi SSE 10.4 mph - N/A   Overcast
9:55 AM 34.0 °F 27.2 °F 32.9 °F 96% 30.02 in 2.5 mi SSE 8.1 mph 18.4 mph N/A   Overcast
10:15 AM 34.3 °F 27.7 °F 33.3 °F 96% 30.02 in 2.5 mi SSE 8.1 mph - N/A   Overcast
10:35 AM 34.7 °F 27.5 °F 33.3 °F 94% 30.02 in 2.5 mi SSE 9.2 mph - N/A   Overcast
10:55 AM 34.7 °F 27.5 °F 33.4 °F 95% 30.00 in 2.5 mi SSE 9.2 mph - N/A   Overcast
11:15 AM 35.1 °F 29.3 °F 33.8 °F 95% 29.99 in 2.5 mi South 6.9 mph - N/A   Overcast
11:35 AM 35.6 °F 29.2 °F 34.0 °F 94% 29.98 in 3.0 mi South 8.1 mph - N/A   Overcast
11:55 AM 35.8 °F 28.3 °F 34.0 °F 93% 29.96 in 3.0 mi SSE 10.4 mph - N/A   Overcast
12:15 PM 35.8 °F 28.8 °F 34.5 °F 95% 29.95 in 2.0 mi SSE 9.2 mph 16.1 mph N/A   Overcast
12:35 PM 35.8 °F 29.4 °F 34.7 °F 96% 29.94 in 2.5 mi SSE 8.1 mph - N/A   Overcast
12:55 PM 36.3 °F 30.8 °F 34.9 °F 95% 29.93 in 3.0 mi SSE 6.9 mph - N/A   Overcast
1:15 PM 36.5 °F 30.3 °F 34.9 °F 94% 29.92 in 3.0 mi SSE 8.1 mph - N/A   Overcast
1:35 PM 36.5 °F 29.7 °F 34.9 °F 94% 29.91 in 4.0 mi South 9.2 mph 20.7 mph N/A   Overcast
1:55 PM 36.7 °F 30.5 °F 34.7 °F 93% 29.91 in 5.0 mi South 8.1 mph - N/A   Overcast
2:15 PM 37.0 °F 31.6 °F 34.0 °F 89% 29.91 in 7.0 mi South 6.9 mph 18.4 mph N/A   Overcast
2:35 PM 37.4 °F 30.8 °F 32.9 °F 84% 29.90 in 7.0 mi South 9.2 mph - N/A   Overcast
2:55 PM 37.4 °F 30.3 °F 32.9 °F 84% 29.90 in 5.0 mi SSE 10.4 mph - N/A   Overcast
3:15 PM 37.0 °F 29.8 °F 33.1 °F 86% 29.90 in 5.0 mi South 10.4 mph - N/A   Overcast
3:35 PM 37.0 °F 29.8 °F 33.4 °F 87% 29.90 in 5.0 mi South 10.4 mph 17.3 mph N/A   Overcast
3:55 PM 37.0 °F 29.3 °F 33.4 °F 87% 29.90 in 5.0 mi South 11.5 mph - N/A   Overcast
4:15 PM 37.0 °F 30.4 °F 33.8 °F 88% 29.90 in 7.0 mi South 9.2 mph - N/A   Overcast
4:35 PM 36.9 °F 30.1 °F 34.2 °F 90% 29.90 in 7.0 mi South 9.2 mph - N/A   Overcast
4:55 PM 36.7 °F 29.9 °F 34.9 °F 93% 29.90 in 7.0 mi South 9.2 mph - N/A   Overcast
5:15 PM 36.7 °F 31.2 °F 35.2 °F 95% 29.89 in 5.0 mi SSE 6.9 mph - N/A   Overcast
5:35 PM 36.5 °F 29.2 °F 35.4 °F 96% 29.89 in 5.0 mi South 10.4 mph - N/A   Overcast
5:55 PM 36.5 °F 29.7 °F 35.2 °F 95% 29.89 in 7.0 mi SSE 9.2 mph - N/A   Overcast
6:15 PM 36.7 °F 28.4 °F 35.2 °F 95% 29.88 in 7.0 mi South 12.7 mph - N/A   Overcast
6:35 PM 37.0 °F 28.9 °F 35.1 °F 93% 29.88 in 7.0 mi South 12.7 mph - N/A   Overcast
6:55 PM 37.0 °F 28.9 °F 34.9 °F 92% 29.88 in 7.0 mi South 12.7 mph 18.4 mph N/A   Overcast
7:15 PM 37.0 °F 27.7 °F 34.9 °F 92% 29.87 in 10.0 mi South 16.1 mph 21.9 mph N/A   Overcast
7:35 PM 37.4 °F 29.8 °F 34.5 °F 89% 29.87 in 10.0 mi South 11.5 mph 24.2 mph N/A   Overcast
7:55 PM 37.4 °F 29.3 °F 34.2 °F 88% 29.87 in 10.0 mi South 12.7 mph 20.7 mph N/A   Overcast
8:15 PM 37.4 °F 29.8 °F 33.8 °F 87% 29.87 in 10.0 mi South 11.5 mph 21.9 mph N/A   Overcast
8:35 PM 37.0 °F 29.3 °F 33.4 °F 87% 29.87 in 10.0 mi South 11.5 mph 23.0 mph N/A   Overcast
8:55 PM 36.9 °F 27.8 °F 33.3 °F 87% 29.86 in 10.0 mi South 15.0 mph 18.4 mph N/A   Overcast
9:15 PM 36.7 °F 27.6 °F 33.1 °F 87% 29.86 in 7.0 mi South 15.0 mph 19.6 mph N/A   Overcast
9:35 PM 36.5 °F 29.7 °F 32.9 °F 87% 29.87 in 7.0 mi SSE 9.2 mph 23.0 mph N/A   Overcast
9:55 PM 36.5 °F 29.2 °F 32.9 °F 87% 29.87 in 7.0 mi South 10.4 mph - N/A   Overcast
10:15 PM 36.5 °F 29.7 °F 32.5 °F 86% 29.87 in 7.0 mi South 9.2 mph 18.4 mph N/A   Overcast
10:35 PM 36.1 °F 29.9 °F 32.5 °F 87% 29.87 in 7.0 mi South 8.1 mph - N/A   Overcast
10:55 PM 36.1 °F 29.3 °F 32.4 °F 86% 29.87 in 7.0 mi SSE 9.2 mph - N/A   Overcast
11:15 PM 36.1 °F 30.6 °F 32.4 °F 86% 29.87 in 7.0 mi South 6.9 mph - N/A   Overcast
11:35 PM 35.8 °F 28.8 °F 32.0 °F 86% 29.87 in 7.0 mi South 9.2 mph 17.3 mph N/A   Overcast
11:55 PM 35.6 °F 28.6 °F 32.2 °F 87% 29.87 in 7.0 mi SSE 9.2 mph - N/A   Overcast